Terminal Aerodrome Forecast
Issued by NWS

Home | Current Version | Previous Version | Text Only | Print | Product List | Glossary On
Versions: 1 2 3 4 5 6 7 8 9 10 11 12 13 14 15 16 17 18 19 20 21
000
FTUS43 KAPX 241946 AAA
TAFTVC
TAF AMD
KTVC 241946Z 2420/2518 23008KT P6SM VCSH SCT015 OVC040
     FM250600 26004KT 3SM BR OVC015
     FM251400 28007KT P6SM OVC030=

USA.gov is the U.S. government's official web portal to all federal, state and local government web resources and services.